KLOT/LOT METAR and TAF weather

Enter ICAO airport designator
Station Type Date Time Source
KLOT METAR 2022/06/26 08:15 UTC NOAA

KLOT 260815Z AUTO 34007KT BKN020 BKN025 22/21 A2999 RMK AO2 T02180210 PWINO


Station Type Date Time Source
KLOT Decoded METAR 2022/06/26 08:15 UTC NOAA

Chicago/Romeoville, Lewis University Airport, IL, United States (KLOT) 41-36-30N 088-05-39W
Jun 26, 2022 - 04:15 AM EDT / 2022.06.26 0815 UTC
Wind: from the NNW (340 degrees) at 8 MPH (7 KT):0
Sky conditions: mostly cloudy
Temperature: 71.2 F (21.8 C)
Dew Point: 69.8 F (21.0 C)
Relative Humidity: 95%
Pressure (altimeter): 29.99 in. Hg (1015 hPa)
ob: KLOT 260815Z AUTO 34007KT BKN020 BKN025 22/21 A2999 RMK AO2 T02180210 PWINO
cycle: 8

Station Type Date Time Source
KLOT TAF UTC NOAA

Error!

Example: see airport list